SBOSBO TLV / LLBG
Speedbird OnlineSpeedbird Online TLV / LLBG

Ben Gurion International Airport
11:05 27.8°C

Location Tel Aviv, Israel
Latitude: 32.01139831542969
Longitude: 34.88669967651367
Web Airport Website | Wikipedia
Altitude 41 Meter / 135 Feet
Distance 3,553 KM / 2,208 Miles
from London.
Time Zone UTC +3 hours (Asia/Jerusalem)
Codes IATA: TLV
ICAO: LLBG
Currency £1 equals ILS 4.02
Runways
RunwayLength (m)Surface
032772Asphalt
084062Asphalt
123112Asphalt
212772Asphalt
264062Asphalt
303112Asphalt
Radio
TypeDescriptionFrequency
APPBen Gurion Approach120.5
ATISATIS132.5
CTRTel Aviv Control121.4
GNDBen Gurion Ground118.05
GNDBen Gurion Ground/Delivery129.2
TWRBen Gurion Tower134.6
Live ATC
METAR LLBG 060750Z 36006KT 290V080 9999 FEW035 28/18 Q1014 NOSIG
TAF TAF LLBG 060403Z 0606/0706 VRB04KT 9999 SCT025 BECMG 0607/0609 32010KT FEW035 BECMG 0616/0618 VRB04KT SCT030 TEMPO 0621/0706 15005KT BKN025 TX30/0610Z TN22/0704Z
Weather As Of 06 Oct 2022 11:05
Description Few clouds
Wind 11 km/h from North (360°)
Cloud Cover 20%
Precipitation Rain: none, Snow: none
Sunrise 06:37
Sunset 18:19
Lounges Dan Lounges B/C , -
Dan Lounge E , International
Rotations During the last 90 days there were
172 flights from LHR
169 flights to LHR


© 2017-2022 Speedbird Online